Time;durP1;ratioP1;P1;durP2;ratioP2;P2;SDS_P1;SDS_P2;PMS_P1;PMS_P2;Temp;Humidity;BMP_temperature;BMP_pressure;BME280_temperature;BME280_humidity;BME280_pressure;Samples;Min_cycle;Max_cycle;Signal;HPM_P1;HPM_P2
2022/04/17 00:00:48;;;;;;;19.48;6.90;;;;;;;16.70;63.37;100868.19;5065097;28;20132;-83
2022/04/17 00:03:15;;;;;;;15.82;6.50;;;;;;;16.62;63.26;100857.66;5058534;28;20060;-76
2022/04/17 00:05:42;;;;;;;25.25;12.18;;;;;;;16.66;62.95;100852.22;5068535;28;20511;-76
2022/04/17 00:08:09;;;;;;;22.80;9.20;;;;;;;16.71;63.32;100855.75;5070447;28;20475;-76
2022/04/17 00:10:36;;;;;;;16.33;7.55;;;;;;;16.80;63.43;100870.81;5073353;28;20080;-78
2022/04/17 00:13:04;;;;;;;18.55;8.35;;;;;;;16.77;63.20;100862.16;5066511;28;20119;-78
2022/04/17 00:15:32;;;;;;;21.57;7.73;;;;;;;16.69;63.38;100843.97;5065469;28;20454;-79
2022/04/17 00:18:08;;;;;;;20.02;7.90;;;;;;;16.95;62.97;100891.38;5068303;28;20052;-77
2022/04/17 00:20:37;;;;;;;19.08;7.60;;;;;;;16.92;62.98;100875.09;5065364;28;20087;-76
2022/04/17 00:23:04;;;;;;;20.35;7.35;;;;;;;16.88;63.09;100871.22;5068799;28;20565;-74
2022/04/17 00:25:31;;;;;;;26.25;8.43;;;;;;;16.54;62.76;100813.25;5048447;28;20052;-78
2022/04/17 00:27:58;;;;;;;16.83;7.22;;;;;;;16.87;63.14;100878.03;5068249;28;20086;-80
2022/04/17 00:30:27;;;;;;;17.00;7.68;;;;;;;16.82;63.40;100876.16;5066597;28;20523;-81
2022/04/17 00:32:54;;;;;;;16.70;7.35;;;;;;;16.65;63.42;100865.47;5066245;28;20135;-81
2022/04/17 00:35:21;;;;;;;16.83;7.25;;;;;;;16.78;63.14;100880.75;5062354;28;20131;-80
2022/04/17 00:37:48;;;;;;;19.20;8.18;;;;;;;16.74;63.48;100859.94;5046195;28;20040;-80
2022/04/17 00:40:15;;;;;;;19.60;6.38;;;;;;;16.78;63.50;100861.81;5068927;28;20076;-79
2022/04/17 00:42:42;;;;;;;13.55;6.13;;;;;;;16.61;63.12;100832.56;5067304;28;20068;-80
2022/04/17 00:45:14;;;;;;;22.63;6.35;;;;;;;16.65;63.47;100840.09;5067307;28;20071;-80
2022/04/17 00:47:44;;;;;;;19.75;7.03;;;;;;;16.62;63.32;100828.63;5063136;28;20060;-80
2022/04/17 00:50:11;;;;;;;14.50;5.82;;;;;;;16.53;63.12;100822.88;5064057;28;20131;-75
2022/04/17 00:52:39;;;;;;;13.95;6.45;;;;;;;16.68;63.02;100861.19;5048841;28;20068;-77
2022/04/17 00:55:08;;;;;;;14.80;5.90;;;;;;;16.52;63.29;100835.31;5067679;28;20184;-77
2022/04/17 00:57:35;;;;;;;22.23;6.40;;;;;;;16.66;63.51;100853.06;5068533;28;20464;-76
2022/04/17 01:00:04;;;;;;;13.88;5.90;;;;;;;16.65;63.58;100844.88;5064322;28;20190;-76
2022/04/17 01:02:31;;;;;;;16.80;7.68;;;;;;;16.75;63.72;100862.47;5073752;28;20082;-75
2022/04/17 01:04:58;;;;;;;17.90;6.43;;;;;;;16.74;63.57;100857.97;5063916;28;20045;-77
2022/04/17 01:07:26;;;;;;;15.15;6.28;;;;;;;16.42;63.17;100801.69;5050072;28;20131;-74
2022/04/17 01:09:53;;;;;;;24.65;6.35;;;;;;;16.63;63.44;100827.47;5067629;28;20087;-75
2022/04/17 01:12:20;;;;;;;20.13;7.28;;;;;;;16.74;63.55;100838.22;5071080;28;20174;-76
2022/04/17 01:14:48;;;;;;;16.95;6.63;;;;;;;16.75;63.32;100830.59;5069041;28;20079;-76
2022/04/17 01:17:15;;;;;;;16.52;5.88;;;;;;;16.83;63.26;100846.78;5063212;28;20136;-76
2022/04/17 01:19:42;;;;;;;16.25;7.00;;;;;;;16.68;63.02;100819.72;5074411;28;20131;-75
2022/04/17 01:22:11;;;;;;;16.13;6.32;;;;;;;16.83;63.30;100843.16;5068499;28;20518;-75
2022/04/17 01:27:25;;;;;;;11.18;5.72;;;;;;;16.78;63.24;100842.09;5062454;28;20083;-74
2022/04/17 01:29:53;;;;;;;15.13;5.70;;;;;;;16.54;63.37;100793.53;5071158;28;20066;-76
2022/04/17 01:32:20;;;;;;;13.35;6.68;;;;;;;16.60;63.53;100820.47;5071409;28;20040;-78
2022/04/17 01:34:47;;;;;;;14.23;7.13;;;;;;;16.59;63.57;100818.81;5072263;28;20141;-79
2022/04/17 01:37:14;;;;;;;18.15;6.80;;;;;;;16.50;63.28;100829.13;5051253;28;20048;-81
2022/04/17 01:39:41;;;;;;;13.02;6.75;;;;;;;16.41;63.32;100802.81;5069333;28;20085;-80
2022/04/17 01:42:11;;;;;;;23.40;7.10;;;;;;;16.34;63.20;100790.00;5070556;28;20049;-79
2022/04/17 01:44:37;;;;;;;16.27;7.17;;;;;;;16.31;62.97;100787.81;5067211;28;20121;-80
2022/04/17 01:47:05;;;;;;;18.80;6.40;;;;;;;16.33;63.14;100805.22;5071993;28;20725;-78
2022/04/17 01:49:32;;;;;;;22.65;6.95;;;;;;;16.33;63.48;100799.59;5073344;28;20052;-77
2022/04/17 01:52:00;;;;;;;15.95;7.72;;;;;;;16.37;63.53;100811.06;5058061;28;20125;-78
2022/04/17 01:54:28;;;;;;;25.45;7.85;;;;;;;16.38;63.60;100800.66;5071132;28;20068;-78
2022/04/17 01:56:55;;;;;;;15.80;6.43;;;;;;;16.47;63.49;100812.84;5071118;28;20130;-79
2022/04/17 01:59:23;;;;;;;22.23;7.97;;;;;;;16.47;63.64;100815.66;5070418;28;20502;-78
2022/04/17 02:01:51;;;;;;;15.02;6.97;;;;;;;16.45;63.80;100806.72;5073188;28;20076;-79
2022/04/17 02:04:18;;;;;;;17.35;7.22;;;;;;;16.29;63.54;100806.19;5072873;28;20049;-79
2022/04/17 02:06:47;;;;;;;21.33;6.90;;;;;;;16.35;63.21;100802.94;5072556;28;20458;-79
2022/04/17 02:09:15;;;;;;;17.55;7.03;;;;;;;16.30;63.29;100788.94;5068998;28;20074;-78
2022/04/17 02:11:43;;;;;;;18.38;7.18;;;;;;;16.31;63.47;100779.34;5067128;28;20109;-77
2022/04/17 02:14:10;;;;;;;20.33;6.68;;;;;;;16.39;63.56;100802.31;5067479;28;20463;-77
2022/04/17 02:16:38;;;;;;;14.38;7.20;;;;;;;16.38;63.85;100789.38;5067405;28;20506;-83
2022/04/17 02:19:05;;;;;;;20.77;7.28;;;;;;;16.34;63.64;100795.66;5072499;28;20139;-79
2022/04/17 02:21:32;;;;;;;23.75;6.93;;;;;;;16.35;63.69;100797.31;5069649;28;20052;-83
2022/04/17 02:24:00;;;;;;;21.42;6.68;;;;;;;16.51;63.83;100813.88;5070606;28;20053;-83
2022/04/17 02:26:28;;;;;;;19.10;7.85;;;;;;;16.45;63.61;100799.06;5072220;28;20560;-83
2022/04/17 02:28:56;;;;;;;11.95;7.20;;;;;;;16.37;63.54;100771.63;5074889;28;20101;-81
2022/04/17 02:31:24;;;;;;;17.25;7.32;;;;;;;16.58;63.39;100798.25;5071424;28;20052;-82
2022/04/17 02:33:51;;;;;;;23.20;6.88;;;;;;;16.52;63.55;100798.66;5074312;28;20103;-83
2022/04/17 02:36:20;;;;;;;18.92;7.38;;;;;;;16.56;63.77;100802.50;5066660;28;20081;-82
2022/04/17 02:38:46;;;;;;;14.23;6.28;;;;;;;16.34;63.27;100767.47;5071162;28;20055;-83
2022/04/17 02:41:14;;;;;;;15.88;6.53;;;;;;;16.46;63.38;100794.28;5067143;28;20076;-81
2022/04/17 02:43:40;;;;;;;16.20;6.10;;;;;;;16.31;63.21;100770.91;5071845;28;20127;-80
2022/04/17 02:46:07;;;;;;;17.40;6.68;;;;;;;16.29;63.40;100778.00;5065437;28;20152;-82
2022/04/17 02:48:35;;;;;;;14.02;7.05;;;;;;;16.41;63.40;100805.63;5068108;28;20056;-81
2022/04/17 02:51:02;;;;;;;15.15;6.55;;;;;;;16.40;63.48;100803.97;5069959;28;20095;-81
2022/04/17 02:53:33;;;;;;;17.50;6.03;;;;;;;16.22;63.18;100778.41;5066818;28;20045;-79
2022/04/17 02:56:03;;;;;;;15.18;6.68;;;;;;;16.30;63.61;100788.94;5067193;28;20072;-84
2022/04/17 02:58:30;;;;;;;;;;;;;;;16.34;63.41;100804.09;5072426;28;20143;-84
2022/04/17 03:06:28;;;;;;;15.35;5.18;;;;;;;16.14;62.99;100741.66;5069896;28;20082;-81
2022/04/17 03:08:54;;;;;;;9.05;5.22;;;;;;;16.49;63.03;100796.47;5064443;28;20135;-80
2022/04/17 03:11:21;;;;;;;12.05;5.18;;;;;;;16.44;62.97;100788.09;5067988;28;20132;-80
2022/04/17 03:13:48;;;;;;;14.15;5.43;;;;;;;16.44;63.25;100788.94;5071637;28;20104;-79
2022/04/17 03:16:15;;;;;;;12.27;5.30;;;;;;;16.44;63.13;100805.00;5069982;28;20139;-80
2022/04/17 03:18:43;;;;;;;12.93;5.28;;;;;;;16.24;63.05;100778.09;5072330;28;20044;-80
2022/04/17 03:21:10;;;;;;;9.80;4.85;;;;;;;16.38;62.94;100804.31;5072720;28;20420;-80
2022/04/17 03:23:37;;;;;;;8.65;4.72;;;;;;;16.33;62.81;100799.59;5076633;28;20101;-80
2022/04/17 03:26:04;;;;;;;10.30;6.03;;;;;;;16.33;63.14;100793.94;5080581;28;20400;-81
2022/04/17 03:28:31;;;;;;;13.00;4.75;;;;;;;16.38;63.12;100798.66;5087191;28;20041;-86
2022/04/17 03:30:58;;;;;;;18.27;6.43;;;;;;;16.19;63.25;100778.19;5079095;28;20053;-85
2022/04/17 03:33:27;;;;;;;12.30;5.22;;;;;;;16.33;63.03;100799.59;5058806;28;20076;-83
2022/04/17 03:35:55;;;;;;;18.52;6.00;;;;;;;16.23;63.10;100782.06;5072735;28;20044;-84
2022/04/17 03:38:23;;;;;;;14.30;6.32;;;;;;;16.06;63.13;100766.59;5071393;28;20068;-84
2022/04/17 03:40:50;;;;;;;17.67;7.43;;;;;;;16.37;62.91;100801.78;5072840;28;20413;-80
2022/04/17 03:43:16;;;;;;;17.05;5.93;;;;;;;16.41;63.15;100808.47;5072553;28;20135;-81
2022/04/17 03:45:47;;;;;;;13.18;5.80;;;;;;;16.22;63.27;100780.41;5070824;28;20477;-83
2022/04/17 03:48:17;;;;;;;11.20;5.30;;;;;;;16.21;63.22;100782.38;5073928;28;20483;-83
2022/04/17 03:50:47;;;;;;;10.10;5.55;;;;;;;16.30;63.10;100771.19;5078982;28;20139;-81
2022/04/17 03:53:14;;;;;;;12.07;4.88;;;;;;;15.85;62.90;100701.41;5090747;28;20036;-82
2022/04/17 03:55:41;;;;;;;16.00;5.55;;;;;;;16.30;62.89;100776.84;5092277;28;20151;-82
2022/04/17 03:58:09;;;;;;;14.45;5.97;;;;;;;16.03;63.14;100732.59;5094195;28;20044;-83
2022/04/17 04:00:37;;;;;;;10.20;5.47;;;;;;;16.37;63.05;100790.50;5083680;28;20158;-83
2022/04/17 04:03:04;;;;;;;13.73;5.75;;;;;;;16.24;62.80;100769.63;5070569;28;20048;-82
2022/04/17 04:05:34;;;;;;;12.40;5.80;;;;;;;16.29;62.99;100798.56;5088612;28;20034;-80
2022/04/17 04:08:02;;;;;;;;;;;;;;;16.15;63.38;100791.25;5095914;28;20056;-78
2022/04/17 04:10:29;;;;;;;10.75;5.18;;;;;;;15.96;63.14;100772.44;5093764;28;19924;-79
2022/04/17 04:12:56;;;;;;;10.50;4.90;;;;;;;15.96;63.15;100788.50;5091973;28;20062;-80
2022/04/17 04:15:23;;;;;;;13.63;5.87;;;;;;;15.59;63.45;100756.53;5070170;28;20052;-79
2022/04/17 04:17:50;;;;;;;12.85;5.53;;;;;;;15.79;63.38;100806.84;5070772;28;20079;-79
2022/04/17 04:20:17;;;;;;;12.38;6.63;;;;;;;15.87;63.11;100808.13;5066940;28;20131;-78
2022/04/17 04:22:45;;;;;;;17.80;6.60;;;;;;;15.80;62.99;100782.34;5054675;28;20115;-78
2022/04/17 04:25:12;;;;;;;15.18;6.32;;;;;;;16.00;62.97;100809.25;5064958;28;20127;-79
2022/04/17 04:30:24;;;;;;;15.73;5.90;;;;;;;15.93;63.14;100806.03;5061117;28;20424;-79
2022/04/17 04:32:56;;;;;;;12.43;5.90;;;;;;;15.87;63.18;100803.31;5070056;28;20072;-79
2022/04/17 04:35:26;;;;;;;14.48;5.25;;;;;;;16.01;63.28;100825.03;5050850;28;20056;-81
2022/04/17 04:37:53;;;;;;;17.63;6.50;;;;;;;15.90;63.26;100806.63;5068881;28;20045;-82
2022/04/17 04:40:20;;;;;;;12.65;5.63;;;;;;;15.88;63.30;100798.53;5066497;28;20131;-81
2022/04/17 04:42:48;;;;;;;14.80;6.33;;;;;;;15.98;63.26;100803.13;5066221;28;20494;-77
2022/04/17 04:48:00;;;;;;;18.00;6.72;;;;;;;16.02;62.95;100818.25;5070562;28;20094;-76
2022/04/17 04:50:27;;;;;;;19.58;7.38;;;;;;;15.95;63.25;100792.47;5041413;28;20583;-77
2022/04/17 04:52:54;;;;;;;14.13;5.28;;;;;;;15.97;63.17;100795.84;5067077;28;20139;-78
2022/04/17 04:55:21;;;;;;;15.27;6.80;;;;;;;15.86;63.15;100790.41;5068037;28;20083;-81
2022/04/17 04:57:47;;;;;;;16.90;7.03;;;;;;;15.91;63.18;100797.91;5071735;28;20155;-81
2022/04/17 05:00:14;;;;;;;17.43;6.10;;;;;;;16.05;63.09;100814.81;5069185;28;20079;-81
2022/04/17 05:02:41;;;;;;;12.30;6.53;;;;;;;16.03;63.21;100809.50;5075588;28;20491;-80
2022/04/17 05:05:09;;;;;;;17.90;6.65;;;;;;;15.94;62.99;100790.81;5075886;28;20143;-80
2022/04/17 05:07:36;;;;;;;18.13;7.07;;;;;;;15.93;62.88;100794.75;5072831;28;20542;-80
2022/04/17 05:10:07;;;;;;;14.10;6.38;;;;;;;15.55;62.70;100727.28;5072955;28;20201;-80
2022/04/17 05:12:36;;;;;;;17.83;7.40;;;;;;;15.91;62.63;100785.81;5072735;28;20055;-79
2022/04/17 05:15:03;;;;;;;14.00;6.73;;;;;;;15.82;62.99;100794.94;5069777;28;20093;-81
2022/04/17 05:17:30;;;;;;;15.77;7.32;;;;;;;15.43;62.90;100735.41;5070850;28;20044;-81
2022/04/17 05:19:57;;;;;;;15.57;7.15;;;;;;;15.61;62.83;100759.84;5073849;28;20132;-81
2022/04/17 05:22:31;;;;;;;19.02;7.65;;;;;;;15.47;62.59;100742.94;5056312;28;20075;-81
2022/04/17 05:24:59;;;;;;;18.60;7.63;;;;;;;15.49;62.41;100751.06;5064157;28;20109;-78
2022/04/17 05:27:28;;;;;;;24.85;8.75;;;;;;;15.29;62.87;100719.34;5075007;28;20083;-78
2022/04/17 05:29:56;;;;;;;19.52;7.57;;;;;;;15.35;63.34;100743.44;5067476;28;20076;-79
2022/04/17 05:32:23;;;;;;;18.70;8.00;;;;;;;15.59;63.14;100779.88;5071342;28;20140;-78
2022/04/17 05:34:50;;;;;;;12.30;5.73;;;;;;;15.41;63.45;100773.13;5071621;28;20062;-80
2022/04/17 05:37:17;;;;;;;30.77;8.13;;;;;;;15.06;63.89;100765.28;5074146;28;20088;-80
2022/04/17 05:39:44;;;;;;;20.30;7.67;;;;;;;15.05;63.37;100772.06;5072207;28;20056;-79
2022/04/17 05:42:12;;;;;;;13.75;6.60;;;;;;;15.16;63.61;100785.66;5066201;28;20127;-81
2022/04/17 05:44:44;;;;;;;15.87;7.10;;;;;;;14.87;63.98;100770.91;5072716;28;20069;-78
2022/04/17 05:47:13;;;;;;;14.13;7.73;;;;;;;14.71;64.68;100769.50;5073727;28;20131;-78
2022/04/17 05:49:40;;;;;;;19.47;8.27;;;;;;;14.62;65.00;100774.94;5068916;28;20057;-79
2022/04/17 05:52:07;;;;;;;17.90;7.23;;;;;;;14.30;65.22;100742.75;5073207;28;20140;-85
2022/04/17 05:54:34;;;;;;;25.70;9.90;;;;;;;14.56;65.46;100799.44;5075139;28;20090;-82
2022/04/17 05:57:01;;;;;;;14.97;7.17;;;;;;;14.45;65.80;100789.47;5071661;28;20087;-82
2022/04/17 05:59:28;;;;;;;17.53;8.43;;;;;;;14.52;66.11;100800.38;5070866;28;20055;-84
2022/04/17 06:01:55;;;;;;;21.90;8.27;;;;;;;14.41;65.79;100780.78;5066100;28;20476;-83
2022/04/17 06:04:22;;;;;;;18.70;8.57;;;;;;;14.57;65.90;100800.31;5072297;28;20049;-84
2022/04/17 06:06:49;;;;;;;28.17;9.63;;;;;;;14.35;65.93;100773.56;5070497;28;20057;-76
2022/04/17 06:09:16;;;;;;;20.10;8.77;;;;;;;14.55;65.76;100805.38;5069366;28;20119;-80
2022/04/17 06:11:43;;;;;;;23.50;8.60;;;;;;;14.19;65.68;100753.28;5071860;28;20432;-81
2022/04/17 06:14:09;;;;;;;19.97;9.50;;;;;;;14.45;65.84;100795.91;5067319;28;20084;-80
2022/04/17 06:16:36;;;;;;;24.00;8.47;;;;;;;14.51;65.77;100787.47;5069990;28;20068;-80
2022/04/17 06:19:05;;;;;;;25.77;9.90;;;;;;;14.50;65.63;100788.56;5072338;28;20121;-81
2022/04/17 06:21:37;;;;;;;17.97;8.53;;;;;;;14.40;65.86;100773.50;5071211;28;20047;-82
2022/04/17 06:24:05;;;;;;;29.00;8.97;;;;;;;14.44;65.62;100766.16;5068866;28;20120;-81
2022/04/17 06:26:33;;;;;;;21.20;7.73;;;;;;;14.37;65.96;100762.03;5053458;28;20223;-81
2022/04/17 06:29:05;;;;;;;28.30;10.50;;;;;;;13.96;66.41;100696.00;5069329;28;20044;-81
2022/04/17 06:31:32;;;;;;;19.97;9.57;;;;;;;14.37;66.13;100776.91;5073667;28;20052;-83
2022/04/17 06:33:59;;;;;;;28.80;9.87;;;;;;;14.36;66.18;100778.06;5071437;28;20064;-82
2022/04/17 06:36:26;;;;;;;24.43;9.30;;;;;;;14.48;66.21;100808.53;5054836;28;20136;-81
2022/04/17 06:38:53;;;;;;;25.40;10.47;;;;;;;14.45;66.17;100806.31;5078791;28;20045;-80
2022/04/17 06:41:19;;;;;;;30.00;11.57;;;;;;;14.45;65.89;100795.91;5072980;28;20079;-80
2022/04/17 06:43:50;;;;;;;22.83;10.98;;;;;;;14.51;65.73;100799.53;5073249;28;20080;-80
2022/04/17 06:46:17;;;;;;;21.97;10.03;;;;;;;14.22;66.04;100763.06;5065082;28;20048;-80
2022/04/17 06:48:44;;;;;;;25.07;10.40;;;;;;;14.49;66.13;100817.78;5070459;28;20135;-80
2022/04/17 06:51:11;;;;;;;25.13;11.37;;;;;;;14.71;65.74;100834.97;5060531;28;20135;-81
2022/04/17 06:53:38;;;;;;;28.83;11.23;;;;;;;14.79;65.18;100816.59;5067918;28;20131;-80
2022/04/17 06:56:06;;;;;;;28.37;12.27;;;;;;;15.04;65.24;100824.69;5064441;28;20135;-82
2022/04/17 06:58:33;;;;;;;21.17;9.70;;;;;;;14.89;65.22;100814.47;5070792;28;20071;-82
2022/04/17 07:01:00;;;;;;;32.27;14.00;;;;;;;15.07;64.86;100838.09;5063199;28;20068;-82
2022/04/17 07:03:27;;;;;;;27.07;11.03;;;;;;;15.10;65.11;100828.22;5071111;28;20099;-82
2022/04/17 07:05:54;;;;;;;25.90;11.23;;;;;;;15.27;64.92;100841.75;5073535;28;20124;-79
2022/04/17 07:08:20;;;;;;;26.67;11.23;;;;;;;15.07;64.99;100806.34;5077437;28;20106;-80
2022/04/17 07:10:48;;;;;;;29.70;12.07;;;;;;;15.19;64.77;100814.31;5056358;28;20064;-83
2022/04/17 07:13:15;;;;;;;19.57;10.57;;;;;;;15.32;64.64;100828.47;5058812;28;20051;-75
2022/04/17 07:15:42;;;;;;;35.27;13.70;;;;;;;15.32;64.61;100808.75;5054356;28;20052;-81
2022/04/17 07:18:09;;;;;;;27.07;13.27;;;;;;;15.50;64.93;100820.28;5056245;28;20052;-83
2022/04/17 07:20:36;;;;;;;26.20;11.93;;;;;;;15.48;64.73;100822.56;5063605;28;20068;-75
2022/04/17 07:23:10;;;;;;;24.77;11.57;;;;;;;15.59;64.47;100832.53;5062527;28;20515;-72
2022/04/17 07:25:37;;;;;;;22.85;11.85;;;;;;;15.70;64.52;100836.88;5056418;28;20056;-73
2022/04/17 07:28:04;;;;;;;27.23;12.70;;;;;;;15.85;64.11;100845.03;5058526;28;20098;-73
2022/04/17 07:30:33;;;;;;;28.35;13.98;;;;;;;15.96;63.90;100848.50;5055363;28;20130;-79
2022/04/17 07:33:01;;;;;;;29.45;12.13;;;;;;;15.92;64.04;100833.34;5053890;28;20056;-81
2022/04/17 07:35:29;;;;;;;32.37;12.80;;;;;;;16.11;63.90;100845.41;5056575;28;20148;-82
2022/04/17 07:37:59;;;;;;;23.17;12.50;;;;;;;16.17;63.88;100846.16;5058838;28;20060;-77
2022/04/17 07:40:28;;;;;;;30.05;12.90;;;;;;;16.24;63.62;100842.91;5037543;28;20140;-78
2022/04/17 07:43:00;;;;;;;32.30;13.55;;;;;;;16.32;63.43;100847.81;5056635;28;20139;-74
2022/04/17 07:45:29;;;;;;;33.28;13.23;;;;;;;16.42;63.16;100835.50;5061146;28;20080;-73
2022/04/17 07:47:56;;;;;;;25.63;10.38;;;;;;;16.44;63.10;100834.03;5058032;28;20407;-75
2022/04/17 07:50:32;;;;;;;25.02;12.38;;;;;;;16.32;62.81;100812.03;5059006;28;20513;-74
2022/04/17 07:53:00;;;;;;;26.85;12.27;;;;;;;16.39;62.79;100802.31;5055342;28;20503;-74
2022/04/17 07:55:28;;;;;;;22.65;10.85;;;;;;;16.60;62.77;100831.75;5055228;28;20052;-75
2022/04/17 08:00:32;;;;;;;26.30;14.18;;;;;;;16.86;62.42;100840.53;5055572;28;21546;-74
2022/04/17 08:06:05;;;;;;;27.05;12.30;;;;;;;17.20;62.04;100813.81;5055702;28;20048;-74
2022/04/17 08:08:37;;;;;;;25.48;11.95;;;;;;;17.52;62.02;100824.84;5057489;28;20048;-75
2022/04/17 08:11:04;;;;;;;22.30;12.68;;;;;;;17.84;61.53;100810.78;5051909;28;20135;-75
2022/04/17 08:13:31;;;;;;;28.60;13.80;;;;;;;18.35;60.42;100824.34;5054630;28;20057;-75
2022/04/17 08:15:59;;;;;;;26.15;11.85;;;;;;;18.70;59.96;100836.63;5056596;28;20613;-78
2022/04/17 08:18:26;;;;;;;24.70;12.98;;;;;;;19.02;59.55;100836.56;5057489;28;20070;-76
2022/04/17 08:20:53;;;;;;;22.20;12.05;;;;;;;19.16;58.86;100818.25;5054533;28;21271;-78
2022/04/17 08:23:20;;;;;;;26.90;12.40;;;;;;;19.58;58.15;100838.38;5061749;28;20666;-82
2022/04/17 08:25:47;;;;;;;24.50;13.73;;;;;;;19.82;58.10;100848.41;5056698;28;20095;-78
2022/04/17 08:28:14;;;;;;;24.10;14.00;;;;;;;20.09;57.52;100835.81;5057193;28;20125;-78
2022/04/17 08:30:42;;;;;;;28.10;14.75;;;;;;;20.43;56.66;100845.38;5059550;28;20174;-78
2022/04/17 08:33:09;;;;;;;24.13;13.98;;;;;;;20.73;56.21;100854.78;5069443;28;20067;-79
2022/04/17 08:35:36;;;;;;;24.15;13.73;;;;;;;20.94;55.38;100824.44;5059246;28;20123;-78
2022/04/17 08:38:04;;;;;;;29.10;14.60;;;;;;;21.38;55.05;100836.34;5076605;28;20048;-79
2022/04/17 08:40:31;;;;;;;26.70;13.60;;;;;;;21.60;54.12;100837.16;5076579;28;20507;-78
2022/04/17 08:42:59;;;;;;;36.85;17.00;;;;;;;21.81;53.56;100826.56;5071996;28;20087;-77
2022/04/17 08:45:26;;;;;;;23.08;12.82;;;;;;;22.27;52.72;100853.03;5076659;28;20131;-78
2022/04/17 08:47:54;;;;;;;24.50;12.73;;;;;;;22.53;52.31;100851.88;5067098;28;20615;-78
2022/04/17 08:50:22;;;;;;;23.60;11.98;;;;;;;22.63;51.54;100835.19;5055895;28;20066;-78
2022/04/17 08:52:51;;;;;;;22.10;11.57;;;;;;;22.72;51.68;100835.03;5060454;28;20135;-78
2022/04/17 08:55:19;;;;;;;27.58;13.93;;;;;;;22.80;51.15;100819.84;5059186;28;20147;-78
2022/04/17 08:57:46;;;;;;;19.58;11.55;;;;;;;23.12;50.89;100829.47;5060213;28;20147;-78
2022/04/17 09:00:17;;;;;;;23.23;15.00;;;;;;;23.31;49.92;100831.66;5039725;28;20056;-78
2022/04/17 09:02:46;;;;;;;25.95;12.90;;;;;;;23.54;49.60;100828.28;5073213;28;20059;-79
2022/04/17 09:05:16;;;;;;;20.25;11.60;;;;;;;23.42;49.23;100778.69;5059235;28;20063;-78
2022/04/17 09:07:54;;;;;;;17.63;10.82;;;;;;;23.92;49.16;100821.25;5058382;28;20049;-78
2022/04/17 09:10:28;;;;;;;23.15;10.65;;;;;;;24.21;48.42;100826.53;5059111;28;20059;-77
2022/04/17 09:13:03;;;;;;;21.30;12.32;;;;;;;24.32;48.18;100836.22;5057973;28;20143;-77
2022/04/17 09:15:32;;;;;;;24.77;13.00;;;;;;;24.32;47.31;100833.34;5067108;28;20052;-78
2022/04/17 09:18:00;;;;;;;18.73;10.02;;;;;;;24.22;47.78;100836.75;5075782;28;20132;-78
2022/04/17 09:20:27;;;;;;;22.42;11.23;;;;;;;24.18;46.92;100835.84;5068447;28;20056;-77
2022/04/17 09:22:58;;;;;;;24.98;11.93;;;;;;;24.23;47.11;100832.69;5058388;28;20091;-78
2022/04/17 09:25:26;;;;;;;17.85;10.45;;;;;;;24.38;46.64;100835.94;5075752;28;20049;-78
2022/04/17 09:28:04;;;;;;;17.80;10.18;;;;;;;24.46;47.01;100823.53;5075963;28;20414;-78
2022/04/17 09:30:32;;;;;;;22.23;11.93;;;;;;;24.58;46.08;100826.28;5069068;28;20095;-78
2022/04/17 09:33:06;;;;;;;21.63;10.18;;;;;;;24.54;46.26;100819.66;5058042;28;20083;-78
2022/04/17 09:35:33;;;;;;;26.88;11.55;;;;;;;24.42;45.75;100814.88;5040350;28;20229;-78
2022/04/17 09:38:05;;;;;;;25.17;10.90;;;;;;;24.29;45.52;100808.41;5058388;28;20934;-78
2022/04/17 09:40:33;;;;;;;20.10;11.93;;;;;;;24.39;45.76;100803.34;5058480;28;20452;-78
2022/04/17 09:43:10;;;;;;;18.25;10.95;;;;;;;24.74;45.10;100826.28;5057102;28;20503;-78
2022/04/17 09:46:00;;;;;;;20.25;10.80;;;;;;;24.86;45.29;100836.78;5062055;28;20140;-79
2022/04/17 09:48:38;;;;;;;18.42;11.52;;;;;;;24.91;45.50;100837.31;5058863;28;20087;-79
2022/04/17 09:51:25;;;;;;;23.13;12.80;;;;;;;25.05;45.10;100834.78;5060775;28;20055;-80
2022/04/17 09:53:57;;;;;;;21.08;11.57;;;;;;;25.34;44.81;100834.66;5057982;28;20076;-78
2022/04/17 09:56:35;;;;;;;18.63;9.93;;;;;;;25.53;44.40;100843.22;5058044;28;20187;-78
2022/04/17 09:59:24;;;;;;;19.73;9.90;;;;;;;25.50;44.21;100815.38;5060560;28;20058;-78
2022/04/17 10:01:57;;;;;;;21.08;10.30;;;;;;;25.81;43.75;100813.59;5048087;28;20110;-79
2022/04/17 10:04:26;;;;;;;21.20;9.90;;;;;;;26.16;43.40;100842.09;5059663;28;20055;-79
2022/04/17 10:06:59;;;;;;;20.88;11.07;;;;;;;26.10;43.45;100812.13;5059008;28;20504;-78
2022/04/17 10:09:26;;;;;;;18.02;10.60;;;;;;;26.48;43.00;100839.03;5059793;28;20044;-79
2022/04/17 10:11:56;;;;;;;25.33;10.68;;;;;;;26.86;42.33;100840.88;5073688;28;20163;-79
2022/04/17 10:14:24;;;;;;;17.17;9.80;;;;;;;26.96;42.19;100825.91;5056732;28;20074;-79
2022/04/17 10:16:55;;;;;;;23.98;10.75;;;;;;;27.21;41.83;100831.19;5059336;28;20101;-80
2022/04/17 10:19:25;;;;;;;22.95;10.88;;;;;;;27.25;41.75;100832.91;5058221;28;20040;-80
2022/04/17 10:21:52;;;;;;;20.35;11.30;;;;;;;27.29;41.73;100830.09;5040022;28;20084;-79
2022/04/17 10:24:21;;;;;;;24.65;10.73;;;;;;;27.37;41.85;100849.88;5062339;28;20487;-79
2022/04/17 10:26:52;;;;;;;20.45;12.40;;;;;;;27.20;41.73;100850.44;5057653;28;20044;-79
2022/04/17 10:29:31;;;;;;;23.20;11.85;;;;;;;27.15;41.48;100845.88;5075230;28;20463;-79
2022/04/17 10:32:19;;;;;;;24.10;12.30;;;;;;;26.72;42.06;100846.38;5075565;28;20450;-79
2022/04/17 10:35:04;;;;;;;22.80;12.77;;;;;;;26.65;42.37;100859.38;5059768;28;20083;-79
2022/04/17 10:38:01;;;;;;;31.67;13.55;;;;;;;26.06;41.84;100785.47;5073225;28;20079;-79
2022/04/17 10:40:31;;;;;;;26.70;13.50;;;;;;;26.11;42.33;100842.41;5069681;28;20191;-80
2022/04/17 10:42:59;;;;;;;;;;;;;;;25.34;43.55;100852.63;5057795;28;20084;-79
2022/04/17 10:45:31;;;;;;;27.73;13.30;;;;;;;25.10;43.65;100861.44;5054599;28;20011;-79
2022/04/17 10:48:05;;;;;;;24.80;13.98;;;;;;;24.81;43.93;100841.56;5056151;28;21440;-79
2022/04/17 10:50:52;;;;;;;27.15;14.15;;;;;;;24.67;44.37;100846.09;5057795;28;20144;-79
2022/04/17 10:53:26;;;;;;;35.78;14.88;;;;;;;24.45;44.18;100850.44;5036543;28;20076;-79
2022/04/17 10:56:04;;;;;;;24.08;13.68;;;;;;;24.26;44.24;100848.25;5060539;28;20057;-79
2022/04/17 10:58:45;;;;;;;26.70;12.48;;;;;;;24.27;44.23;100833.63;5054797;28;20052;-79
2022/04/17 11:01:12;;;;;;;27.52;13.18;;;;;;;24.31;44.23;100845.97;5058074;28;20044;-79
2022/04/17 11:03:49;;;;;;;21.75;11.77;;;;;;;24.13;44.62;100833.22;5055459;28;20056;-79
2022/04/17 11:06:31;;;;;;;21.70;10.90;;;;;;;24.19;44.37;100823.22;5038806;28;20143;-79
2022/04/17 11:09:15;;;;;;;18.55;10.32;;;;;;;24.59;44.26;100839.38;5056652;28;20068;-79
2022/04/17 11:11:46;;;;;;;19.25;10.70;;;;;;;24.99;44.03;100815.44;5073970;28;20052;-79
2022/04/17 11:14:22;;;;;;;19.88;10.68;;;;;;;25.52;43.36;100825.25;5056182;28;20087;-79
2022/04/17 11:16:53;;;;;;;16.73;9.93;;;;;;;26.15;42.68;100831.84;5074490;28;20460;-79
2022/04/17 11:19:22;;;;;;;25.15;10.65;;;;;;;26.67;41.98;100822.59;5068967;28;20492;-79
2022/04/17 11:21:51;;;;;;;20.60;10.10;;;;;;;26.95;41.63;100818.53;5059344;28;20058;-79
2022/04/17 11:24:20;;;;;;;18.60;9.88;;;;;;;27.30;41.25;100818.22;5063855;28;20118;-79
2022/04/17 11:26:53;;;;;;;20.30;9.55;;;;;;;27.64;40.86;100819.09;5058440;28;20482;-78
2022/04/17 11:29:40;;;;;;;18.63;9.55;;;;;;;27.70;40.85;100787.19;5068137;28;20059;-78
2022/04/17 11:32:16;;;;;;;16.90;9.07;;;;;;;27.92;40.43;100812.06;5066157;28;20054;-79
2022/04/17 11:34:52;;;;;;;24.73;9.70;;;;;;;28.18;39.92;100801.69;5065261;28;20079;-79
2022/04/17 11:37:24;;;;;;;16.65;9.85;;;;;;;28.42;39.65;100815.47;5071900;28;20044;-79
2022/04/17 11:39:52;;;;;;;16.63;10.05;;;;;;;28.65;39.36;100803.78;5074062;28;20151;-79
2022/04/17 11:42:20;;;;;;;16.52;10.18;;;;;;;28.85;38.68;100789.94;5077506;28;20099;-78